createdAt,value
2019-04-28T00:00:58.207Z,99.90
2019-04-28T00:03:27.872Z,99.90
2019-04-28T00:05:57.544Z,99.90
2019-04-28T00:08:27.362Z,99.90
2019-04-28T00:10:57.008Z,99.90
2019-04-28T00:13:26.714Z,99.90
2019-04-28T00:15:56.327Z,99.90
2019-04-28T00:18:26.073Z,99.90
2019-04-28T00:21:07.507Z,99.90
2019-04-28T00:24:01.898Z,99.90
2019-04-28T00:26:40.806Z,99.90
2019-04-28T00:29:11.141Z,99.90
2019-04-28T00:31:41.465Z,99.90
2019-04-28T00:34:11.601Z,99.90
2019-04-28T00:36:43.002Z,99.90
2019-04-28T00:39:12.972Z,99.90
2019-04-28T00:41:42.563Z,99.90
2019-04-28T00:44:12.304Z,99.90
2019-04-28T00:46:43.054Z,99.90
2019-04-28T00:49:12.659Z,99.90
2019-04-28T00:51:42.333Z,99.90
2019-04-28T00:54:12.329Z,99.90
2019-04-28T00:56:42.175Z,99.90
2019-04-28T00:59:12.046Z,99.90
2019-04-28T01:01:57.232Z,99.90
2019-04-28T01:04:26.916Z,99.90
2019-04-28T01:06:56.637Z,99.90
2019-04-28T01:09:26.305Z,99.90
2019-04-28T01:11:55.991Z,99.90
2019-04-28T01:14:25.729Z,99.90
2019-04-28T01:17:20.323Z,99.90
2019-04-28T01:19:52.081Z,99.90
2019-04-28T01:22:21.699Z,99.90
2019-04-28T01:24:51.416Z,99.90
2019-04-28T01:27:40.356Z,99.90
2019-04-28T01:30:16.245Z,99.90
2019-04-28T01:32:52.511Z,99.90
2019-04-28T01:35:22.159Z,99.90
2019-04-28T01:37:51.785Z,99.90
2019-04-28T01:40:21.404Z,99.90
2019-04-28T01:42:51.024Z,99.90
2019-04-28T01:45:20.757Z,99.90
2019-04-28T01:47:50.558Z,99.90
2019-04-28T01:50:20.611Z,99.90
2019-04-28T01:52:51.578Z,99.90
2019-04-28T01:55:21.272Z,99.90
2019-04-28T01:57:50.911Z,99.90
2019-04-28T02:00:25.281Z,99.90
2019-04-28T02:02:52.819Z,99.90
2019-04-28T02:05:22.473Z,99.90
2019-04-28T02:07:52.082Z,99.90
2019-04-28T02:10:21.890Z,99.90
2019-04-28T02:12:51.595Z,99.90
2019-04-28T02:15:21.300Z,99.90
2019-04-28T02:17:51.637Z,99.90
2019-04-28T02:20:22.802Z,99.90
2019-04-28T02:22:57.372Z,99.90
2019-04-28T02:25:27.088Z,99.90
2019-04-28T02:27:57.205Z,99.90
2019-04-28T02:30:42.244Z,99.90
2019-04-28T02:33:01.341Z,99.90
2019-04-28T02:35:31.727Z,99.90
2019-04-28T02:38:01.105Z,99.90
2019-04-28T02:40:30.852Z,99.90
2019-04-28T02:43:01.295Z,99.90
2019-04-28T02:45:31.751Z,99.90
2019-04-28T02:48:03.720Z,99.90
2019-04-28T02:50:51.035Z,99.90
2019-04-28T02:53:25.142Z,99.90
2019-04-28T02:55:54.865Z,99.90
2019-04-28T02:58:24.550Z,99.90
2019-04-28T03:01:06.299Z,99.90
2019-04-28T03:03:25.468Z,99.90
2019-04-28T03:05:55.197Z,99.90
2019-04-28T03:08:24.871Z,99.90
2019-04-28T03:10:54.619Z,99.90
2019-04-28T03:13:24.291Z,99.90
2019-04-28T03:15:53.962Z,99.90
2019-04-28T03:18:23.605Z,99.90
2019-04-28T03:20:53.457Z,99.90
2019-04-28T03:23:23.586Z,99.90
2019-04-28T03:26:14.877Z,99.90
2019-04-28T03:28:51.386Z,99.90
2019-04-28T03:32:04.097Z,99.90
2019-04-28T03:34:04.016Z,99.90
2019-04-28T03:36:33.535Z,99.90
2019-04-28T03:39:04.381Z,99.90
2019-04-28T03:41:34.025Z,99.90
2019-04-28T03:44:03.684Z,99.90
2019-04-28T03:46:35.525Z,99.90
2019-04-28T03:49:05.108Z,99.90
2019-04-28T03:51:34.862Z,99.90
2019-04-28T03:54:04.455Z,99.90
2019-04-28T03:56:34.081Z,99.90
2019-04-28T03:59:03.709Z,99.90
2019-04-28T04:01:33.437Z,99.90
2019-04-28T04:04:03.550Z,99.90
2019-04-28T04:06:33.366Z,99.90
2019-04-28T04:09:03.202Z,99.90
2019-04-28T04:11:46.661Z,99.90
2019-04-28T04:14:30.931Z,99.90
2019-04-28T04:17:11.403Z,99.90
2019-04-28T04:19:41.131Z,99.90
2019-04-28T04:22:10.875Z,99.90
2019-04-28T04:24:40.676Z,99.90
2019-04-28T04:27:10.813Z,99.90
2019-04-28T04:29:43.297Z,99.90
2019-04-28T04:32:22.944Z,99.90
2019-04-28T04:34:43.190Z,99.90
2019-04-28T04:37:12.878Z,99.90
2019-04-28T04:39:42.539Z,99.90
2019-04-28T04:42:12.193Z,99.90
2019-04-28T04:44:41.884Z,99.90
2019-04-28T04:47:11.633Z,99.90
2019-04-28T04:49:41.342Z,99.90
2019-04-28T04:52:11.054Z,99.90
2019-04-28T04:54:40.767Z,99.90
2019-04-28T04:57:11.126Z,99.90
2019-04-28T04:59:40.976Z,99.90
2019-04-28T05:02:29.635Z,99.90
2019-04-28T05:05:00.477Z,99.90
2019-04-28T05:07:30.237Z,99.90
2019-04-28T05:09:59.835Z,99.90
2019-04-28T05:12:30.630Z,99.90
2019-04-28T05:15:00.531Z,99.90
2019-04-28T05:17:30.365Z,99.90
2019-04-28T05:20:01.483Z,99.90
2019-04-28T05:22:33.407Z,99.90
2019-04-28T05:25:10.101Z,99.90
2019-04-28T05:27:40.014Z,99.90
2019-04-28T05:30:11.328Z,99.90
2019-04-28T05:32:45.385Z,99.90
2019-04-28T05:35:12.957Z,99.90
2019-04-28T05:37:42.635Z,99.90
2019-04-28T05:40:12.364Z,99.90
2019-04-28T05:43:00.518Z,99.90
2019-04-28T05:45:32.131Z,99.90
2019-04-28T05:48:02.224Z,99.90
2019-04-28T05:50:52.927Z,99.90
2019-04-28T05:53:53.593Z,99.90
2019-04-28T05:56:33.480Z,99.90
2019-04-28T05:59:40.366Z,99.90
2019-04-28T06:02:14.672Z,99.90
2019-04-28T06:04:44.372Z,99.90
2019-04-28T06:07:21.004Z,99.90
2019-04-28T06:09:51.985Z,99.90
2019-04-28T06:12:22.196Z,99.90
2019-04-28T06:14:51.819Z,99.90
2019-04-28T06:17:21.472Z,99.90
2019-04-28T06:19:51.153Z,99.90
2019-04-28T06:22:20.786Z,99.90
2019-04-28T06:24:50.502Z,99.90
2019-04-28T06:27:20.130Z,99.90
2019-04-28T06:29:49.780Z,99.90
2019-04-28T06:32:19.442Z,99.90
2019-04-28T06:34:49.196Z,99.90
2019-04-28T06:37:18.893Z,99.90
2019-04-28T06:39:48.513Z,99.90
2019-04-28T06:42:18.180Z,99.90
2019-04-28T06:44:47.873Z,99.90
2019-04-28T06:47:17.512Z,99.90
2019-04-28T06:49:47.228Z,99.90
2019-04-28T06:52:16.895Z,99.90
2019-04-28T06:54:46.524Z,99.90
2019-04-28T06:57:16.215Z,99.90
2019-04-28T06:59:45.960Z,99.90
2019-04-28T07:02:15.611Z,99.90
2019-04-28T07:04:45.372Z,99.90
2019-04-28T07:07:15.114Z,99.90
2019-04-28T07:09:44.788Z,99.90
2019-04-28T07:12:14.429Z,99.90
2019-04-28T07:14:44.077Z,99.90
2019-04-28T07:17:13.744Z,99.90
2019-04-28T07:19:44.928Z,99.90
2019-04-28T07:22:22.416Z,99.90
2019-04-28T07:24:52.032Z,99.90
2019-04-28T07:27:21.844Z,99.90
2019-04-28T07:29:51.479Z,99.90
2019-04-28T07:32:21.263Z,99.90
2019-04-28T07:34:51.040Z,99.90
2019-04-28T07:37:20.664Z,99.90
2019-04-28T07:39:50.303Z,99.90
2019-04-28T07:42:19.925Z,99.90
2019-04-28T07:44:49.568Z,99.90
2019-04-28T07:47:19.209Z,99.90
2019-04-28T07:49:48.840Z,99.90
2019-04-28T07:52:30.791Z,99.90
2019-04-28T07:55:00.458Z,99.90
2019-04-28T07:57:30.158Z,99.90
2019-04-28T07:59:59.779Z,99.90
2019-04-28T08:02:29.392Z,99.90
2019-04-28T08:04:59.072Z,99.90
2019-04-28T08:07:28.680Z,99.90
2019-04-28T08:09:58.301Z,99.90
2019-04-28T08:12:28.000Z,99.90
2019-04-28T08:14:57.623Z,99.90
2019-04-28T08:17:27.360Z,99.90
2019-04-28T08:19:56.988Z,99.90
2019-04-28T08:22:26.676Z,99.90
2019-04-28T08:24:56.384Z,99.90
2019-04-28T08:27:26.127Z,99.90
2019-04-28T08:29:58.596Z,99.90
2019-04-28T08:32:48.765Z,99.90
2019-04-28T08:35:18.531Z,99.90
2019-04-28T08:37:48.200Z,99.90
2019-04-28T08:40:17.839Z,99.90
2019-04-28T08:42:47.472Z,99.90
2019-04-28T08:45:17.098Z,99.90
2019-04-28T08:47:46.728Z,99.90
2019-04-28T08:50:16.516Z,99.90
2019-04-28T08:52:46.264Z,99.90
2019-04-28T08:55:15.965Z,99.90
2019-04-28T08:57:45.596Z,99.90
2019-04-28T09:00:15.642Z,99.90
2019-04-28T09:02:45.325Z,99.90
2019-04-28T09:05:15.733Z,99.90
2019-04-28T09:07:45.371Z,99.90
2019-04-28T09:10:15.262Z,99.90
2019-04-28T09:12:44.933Z,99.90
2019-04-28T09:15:14.682Z,99.90
2019-04-28T09:17:44.304Z,99.90
2019-04-28T09:20:14.107Z,99.90
2019-04-28T09:22:43.765Z,99.90
2019-04-28T09:25:13.397Z,99.90
2019-04-28T09:27:43.060Z,99.90
2019-04-28T09:30:12.694Z,99.90
2019-04-28T09:32:42.472Z,99.90
2019-04-28T09:35:12.357Z,99.90
2019-04-28T09:37:42.008Z,99.90
2019-04-28T09:40:15.892Z,99.90
2019-04-28T09:43:07.436Z,99.90
2019-04-28T09:45:46.831Z,99.90
2019-04-28T09:48:16.476Z,99.90
2019-04-28T09:50:46.116Z,99.90
2019-04-28T09:53:15.780Z,99.90
2019-04-28T09:55:45.462Z,99.90
2019-04-28T09:58:15.093Z,99.90
2019-04-28T10:00:44.853Z,99.90
2019-04-28T10:03:14.567Z,99.90
2019-04-28T10:05:44.249Z,99.90
2019-04-28T10:08:13.878Z,99.90
2019-04-28T10:10:43.572Z,99.90
2019-04-28T10:13:13.325Z,99.90
2019-04-28T10:15:43.063Z,99.90
2019-04-28T10:18:12.839Z,99.90
2019-04-28T10:20:42.532Z,99.90
2019-04-28T10:23:12.380Z,99.90
2019-04-28T10:25:42.016Z,99.90
2019-04-28T10:28:11.640Z,99.90
2019-04-28T10:30:41.381Z,99.90
2019-04-28T10:33:11.084Z,99.90
2019-04-28T10:35:40.865Z,99.90
2019-04-28T10:38:10.511Z,99.90
2019-04-28T10:41:02.021Z,99.90
2019-04-28T10:43:31.640Z,99.90
2019-04-28T10:46:01.553Z,99.90
2019-04-28T10:48:31.297Z,99.90
2019-04-28T10:51:01.312Z,99.90
2019-04-28T10:53:30.998Z,99.90
2019-04-28T10:56:00.657Z,99.90
2019-04-28T10:58:30.324Z,99.90
2019-04-28T11:00:59.936Z,99.90
2019-04-28T11:03:29.640Z,99.90
2019-04-28T11:05:59.319Z,99.90
2019-04-28T11:08:47.862Z,99.90
2019-04-28T11:11:25.992Z,99.90
2019-04-28T11:13:55.740Z,99.90
2019-04-28T11:16:28.690Z,99.90
2019-04-28T11:18:58.432Z,99.90
2019-04-28T11:21:28.156Z,99.90
2019-04-28T11:23:57.900Z,99.90
2019-04-28T11:26:27.617Z,99.90
2019-04-28T11:28:57.266Z,99.90
2019-04-28T11:31:27.004Z,99.90
2019-04-28T11:34:18.453Z,99.90
2019-04-28T11:36:48.145Z,99.90
2019-04-28T11:39:22.332Z,99.90
2019-04-28T11:41:52.078Z,99.90
2019-04-28T11:44:21.837Z,99.50
2019-04-28T11:46:51.456Z,98.90
2019-04-28T11:49:21.111Z,98.10
2019-04-28T11:51:50.716Z,98.10
2019-04-28T11:54:20.356Z,97.70
2019-04-28T11:56:49.986Z,96.60
2019-04-28T11:59:19.746Z,96.00
2019-04-28T12:01:49.543Z,95.20
2019-04-28T12:04:20.173Z,94.40
2019-04-28T12:06:50.021Z,93.80
2019-04-28T12:09:34.020Z,92.90
2019-04-28T12:12:04.988Z,93.10
2019-04-28T12:14:39.795Z,93.20
2019-04-28T12:17:37.596Z,92.50
2019-04-28T12:20:14.748Z,91.80
2019-04-28T12:22:44.475Z,91.00
2019-04-28T12:25:14.552Z,90.90
2019-04-28T12:27:44.333Z,90.80
2019-04-28T12:30:14.183Z,91.10
2019-04-28T12:32:43.824Z,90.40
2019-04-28T12:35:14.006Z,90.60
2019-04-28T12:37:43.802Z,90.20
2019-04-28T12:40:13.632Z,90.20
2019-04-28T12:42:43.316Z,90.00
2019-04-28T12:45:13.114Z,88.20
2019-04-28T12:47:42.780Z,86.30
2019-04-28T12:50:31.687Z,86.00
2019-04-28T12:53:02.128Z,85.40
2019-04-28T12:55:31.731Z,85.90
2019-04-28T12:58:02.889Z,84.40
2019-04-28T13:01:00.544Z,81.50
2019-04-28T13:04:01.264Z,81.50
2019-04-28T13:06:30.984Z,79.80
2019-04-28T13:09:00.617Z,78.60
2019-04-28T13:11:30.264Z,78.20
2019-04-28T13:13:59.904Z,77.50
2019-04-28T13:16:29.656Z,76.30
2019-04-28T13:18:59.283Z,76.80
2019-04-28T13:21:28.904Z,77.00
2019-04-28T13:23:58.538Z,75.40
2019-04-28T13:26:28.259Z,75.60
2019-04-28T13:28:57.912Z,74.90
2019-04-28T13:31:27.719Z,73.70
2019-04-28T13:33:58.660Z,73.70
2019-04-28T13:36:28.446Z,73.20
2019-04-28T13:39:00.679Z,73.10
2019-04-28T13:41:30.340Z,72.20
2019-04-28T13:44:01.492Z,71.30
2019-04-28T13:46:31.159Z,71.20
2019-04-28T13:49:01.447Z,71.60
2019-04-28T13:51:31.073Z,71.00
2019-04-28T13:54:02.533Z,72.10
2019-04-28T13:56:32.131Z,71.20
2019-04-28T13:59:16.095Z,70.20
2019-04-28T14:01:53.747Z,70.70
2019-04-28T14:04:42.346Z,69.40
2019-04-28T14:07:12.187Z,68.80
2019-04-28T14:09:41.853Z,69.40
2019-04-28T14:12:11.608Z,70.80
2019-04-28T14:14:41.251Z,71.80
2019-04-28T14:17:10.962Z,71.60
2019-04-28T14:19:40.697Z,72.50
2019-04-28T14:22:10.332Z,72.50
2019-04-28T14:24:39.980Z,72.60
2019-04-28T14:27:09.768Z,71.70
2019-04-28T14:29:39.400Z,72.00
2019-04-28T14:32:09.054Z,72.20
2019-04-28T14:34:38.704Z,72.10
2019-04-28T14:37:08.392Z,71.80
2019-04-28T14:39:38.053Z,72.10
2019-04-28T14:42:07.701Z,72.10
2019-04-28T14:44:37.347Z,71.70
2019-04-28T14:47:07.007Z,71.20
2019-04-28T14:49:37.231Z,70.20
2019-04-28T14:52:06.827Z,71.60
2019-04-28T14:54:36.469Z,72.50
2019-04-28T14:57:06.154Z,73.00
2019-04-28T14:59:35.854Z,74.40
2019-04-28T15:02:36.383Z,74.50
2019-04-28T15:05:14.727Z,74.00
2019-04-28T15:08:04.529Z,73.80
2019-04-28T15:10:55.897Z,74.40
2019-04-28T15:13:26.380Z,75.30
2019-04-28T15:15:55.953Z,77.20
2019-04-28T15:18:25.687Z,76.50
2019-04-28T15:20:55.351Z,76.30
2019-04-28T15:23:25.021Z,76.70
2019-04-28T15:25:54.676Z,76.70
2019-04-28T15:28:24.350Z,76.80
2019-04-28T15:30:53.964Z,76.70
2019-04-28T15:33:23.584Z,78.00
2019-04-28T15:35:53.271Z,78.60
2019-04-28T15:38:22.984Z,78.90
2019-04-28T15:40:52.605Z,78.60
2019-04-28T15:43:22.338Z,79.20
2019-04-28T15:45:51.940Z,80.00
2019-04-28T15:48:21.735Z,80.60
2019-04-28T15:50:51.420Z,80.90
2019-04-28T15:53:21.045Z,81.80
2019-04-28T15:56:05.172Z,81.40
2019-04-28T15:58:36.724Z,81.50
2019-04-28T16:01:06.588Z,82.20
2019-04-28T16:03:36.209Z,81.70
2019-04-28T16:06:05.954Z,82.90
2019-04-28T16:08:35.726Z,83.10
2019-04-28T16:11:05.399Z,83.40
2019-04-28T16:13:35.109Z,83.70
2019-04-28T16:16:04.788Z,83.20
2019-04-28T16:18:34.501Z,85.60
2019-04-28T16:21:04.119Z,86.70
2019-04-28T16:23:33.751Z,87.50
2019-04-28T16:26:03.377Z,88.70
2019-04-28T16:28:33.123Z,89.50
2019-04-28T16:31:02.806Z,90.20
2019-04-28T16:33:32.467Z,90.80
2019-04-28T16:36:02.162Z,90.50
2019-04-28T16:38:31.789Z,90.80
2019-04-28T16:41:21.437Z,90.80
2019-04-28T16:44:04.268Z,90.80
2019-04-28T16:46:33.925Z,90.60
2019-04-28T16:49:03.754Z,90.90
2019-04-28T16:51:33.418Z,91.50
2019-04-28T16:54:04.297Z,91.60
2019-04-28T16:56:47.224Z,94.90
2019-04-28T16:59:47.997Z,95.70
2019-04-28T17:02:26.617Z,96.30
2019-04-28T17:04:56.309Z,96.70
2019-04-28T17:07:26.000Z,97.00
2019-04-28T17:09:55.656Z,97.40
2019-04-28T17:12:25.333Z,98.60
2019-04-28T17:14:54.962Z,99.10
2019-04-28T17:17:24.653Z,99.90
2019-04-28T17:19:54.425Z,99.90
2019-04-28T17:22:24.191Z,99.90
2019-04-28T17:24:53.827Z,99.90
2019-04-28T17:27:23.612Z,99.90
2019-04-28T17:29:53.360Z,99.90
2019-04-28T17:32:22.985Z,99.90
2019-04-28T17:34:52.640Z,99.90
2019-04-28T17:37:22.462Z,99.90
2019-04-28T17:39:52.108Z,99.90
2019-04-28T17:42:22.239Z,99.90
2019-04-28T17:44:51.958Z,99.90
2019-04-28T17:47:21.609Z,99.90
2019-04-28T17:49:51.448Z,99.90
2019-04-28T17:52:21.256Z,99.90
2019-04-28T17:54:50.988Z,99.90
2019-04-28T17:57:20.705Z,99.90
2019-04-28T17:59:51.891Z,99.90
2019-04-28T18:02:39.110Z,99.90
2019-04-28T18:05:33.745Z,99.90
2019-04-28T18:08:05.009Z,99.90
2019-04-28T18:10:34.644Z,99.90
2019-04-28T18:13:04.292Z,99.90
2019-04-28T18:15:52.315Z,99.90
2019-04-28T18:18:30.140Z,99.90
2019-04-28T18:20:59.864Z,99.90
2019-04-28T18:23:29.564Z,99.90
2019-04-28T18:25:59.240Z,99.90
2019-04-28T18:28:28.900Z,99.90
2019-04-28T18:31:13.271Z,99.90
2019-04-28T18:34:01.797Z,99.90
2019-04-28T18:36:39.003Z,99.90
2019-04-28T18:39:26.004Z,99.90
2019-04-28T18:42:17.556Z,99.90
2019-04-28T18:44:47.324Z,99.90
2019-04-28T18:47:16.964Z,99.90
2019-04-28T18:49:49.348Z,99.90
2019-04-28T18:52:18.965Z,99.90
2019-04-28T18:54:48.641Z,99.90
2019-04-28T18:57:18.273Z,99.90
2019-04-28T18:59:47.889Z,99.90
2019-04-28T19:02:29.709Z,99.90
2019-04-28T19:05:00.832Z,99.90
2019-04-28T19:08:07.521Z,99.90
2019-04-28T19:10:44.461Z,99.90
2019-04-28T19:13:18.056Z,99.90
2019-04-28T19:16:05.262Z,99.90
2019-04-28T19:18:37.610Z,99.90
2019-04-28T19:21:09.369Z,99.90
2019-04-28T19:23:38.993Z,99.90
2019-04-28T19:26:08.807Z,99.90
2019-04-28T19:28:38.453Z,99.90
2019-04-28T19:31:08.156Z,99.90
2019-04-28T19:33:39.572Z,99.90
2019-04-28T19:36:09.260Z,99.90
2019-04-28T19:38:38.896Z,99.90
2019-04-28T19:41:08.545Z,99.90
2019-04-28T19:43:38.180Z,99.90
2019-04-28T19:46:10.585Z,99.90
2019-04-28T19:48:40.266Z,99.90
2019-04-28T19:51:09.846Z,99.90
2019-04-28T19:53:39.485Z,99.90
2019-04-28T19:56:18.844Z,99.90
2019-04-28T19:58:56.176Z,99.90
2019-04-28T20:01:28.870Z,99.90
2019-04-28T20:03:58.539Z,99.90
2019-04-28T20:06:28.193Z,99.90
2019-04-28T20:08:57.876Z,99.90
2019-04-28T20:11:27.540Z,99.90
2019-04-28T20:13:57.364Z,99.90
2019-04-28T20:16:27.028Z,99.90
2019-04-28T20:18:56.687Z,99.90
2019-04-28T20:21:26.318Z,99.90
2019-04-28T20:23:56.033Z,99.90
2019-04-28T20:26:25.820Z,99.90
2019-04-28T20:28:55.576Z,99.90
2019-04-28T20:31:25.264Z,99.90
2019-04-28T20:33:54.892Z,99.90
2019-04-28T20:36:41.899Z,99.90
2019-04-28T20:39:15.846Z,99.90
2019-04-28T20:41:45.590Z,99.90
2019-04-28T20:44:15.221Z,99.90
2019-04-28T20:46:44.975Z,99.90
2019-04-28T20:49:14.609Z,99.90
2019-04-28T20:51:46.480Z,99.90
2019-04-28T20:54:16.143Z,99.90
2019-04-28T20:56:45.823Z,99.90
2019-04-28T20:59:15.466Z,99.90
2019-04-28T21:01:45.285Z,99.90
2019-04-28T21:04:14.838Z,99.90
2019-04-28T21:06:44.500Z,99.90
2019-04-28T21:09:14.167Z,99.90
2019-04-28T21:11:43.782Z,99.90
2019-04-28T21:14:13.412Z,99.90
2019-04-28T21:16:43.141Z,99.90
2019-04-28T21:19:12.780Z,99.90
2019-04-28T21:21:42.436Z,99.90
2019-04-28T21:24:12.195Z,99.90
2019-04-28T21:26:41.838Z,99.90
2019-04-28T21:29:11.501Z,99.90
2019-04-28T21:31:41.152Z,99.90
2019-04-28T21:34:10.808Z,99.90
2019-04-28T21:36:40.513Z,99.90
2019-04-28T21:39:10.218Z,99.90
2019-04-28T21:41:42.729Z,99.90
2019-04-28T21:44:24.963Z,99.90
2019-04-28T21:46:59.664Z,99.90
2019-04-28T21:49:34.380Z,99.90
2019-04-28T21:52:04.223Z,99.90
2019-04-28T21:54:33.856Z,99.90
2019-04-28T21:57:03.481Z,99.90
2019-04-28T21:59:33.277Z,99.90
2019-04-28T22:02:02.992Z,99.90
2019-04-28T22:04:32.762Z,99.90
2019-04-28T22:07:02.430Z,99.90
2019-04-28T22:09:32.307Z,99.90
2019-04-28T22:12:02.117Z,99.90
2019-04-28T22:14:31.892Z,99.90
2019-04-28T22:17:01.613Z,99.90
2019-04-28T22:19:31.236Z,99.90
2019-04-28T22:22:00.981Z,99.90
2019-04-28T22:24:41.716Z,99.90
2019-04-28T22:27:13.556Z,99.90
2019-04-28T22:29:43.300Z,99.90
2019-04-28T22:32:13.084Z,99.90
2019-04-28T22:34:42.728Z,99.90
2019-04-28T22:37:12.376Z,99.90
2019-04-28T22:39:42.086Z,99.90
2019-04-28T22:42:11.757Z,99.90
2019-04-28T22:44:41.418Z,99.90
2019-04-28T22:47:11.079Z,99.90
2019-04-28T22:49:40.837Z,99.90
2019-04-28T22:52:10.546Z,99.90
2019-04-28T22:55:08.385Z,99.90
2019-04-28T22:57:54.140Z,99.90
2019-04-28T23:00:55.728Z,99.90
2019-04-28T23:03:36.484Z,99.90
2019-04-28T23:06:06.144Z,99.90
2019-04-28T23:08:35.781Z,99.90
2019-04-28T23:11:05.437Z,99.90
2019-04-28T23:13:35.132Z,99.90
2019-04-28T23:16:04.808Z,99.90
2019-04-28T23:18:34.597Z,99.90
2019-04-28T23:21:08.920Z,99.90
2019-04-28T23:23:38.569Z,99.90
2019-04-28T23:26:08.219Z,99.90
2019-04-28T23:28:38.180Z,99.90
2019-04-28T23:31:07.876Z,99.90
2019-04-28T23:33:37.540Z,99.90
2019-04-28T23:36:07.188Z,99.90
2019-04-28T23:38:36.828Z,99.90
2019-04-28T23:41:20.743Z,99.90
2019-04-28T23:43:50.396Z,99.90
2019-04-28T23:46:21.671Z,99.90
2019-04-28T23:48:51.333Z,99.90
2019-04-28T23:51:45.957Z,99.90
2019-04-28T23:54:15.591Z,99.90
2019-04-28T23:56:45.200Z,99.90
2019-04-28T23:59:14.829Z,99.90
